sensor_id;sensor_type;location;lat;lon;timestamp;pressure;altitude;pressure_sealevel;temperature;humidity
74960;BME280;63518;49.572;1.106;2023-04-24T00:01:35;98657.69;;;7.04;86.68
74960;BME280;63518;49.572;1.106;2023-04-24T00:04:03;98635.91;;;6.78;87.27
74960;BME280;63518;49.572;1.106;2023-04-24T00:06:30;98657.81;;;6.78;85.94
74960;BME280;63518;49.572;1.106;2023-04-24T00:09:00;98658.63;;;6.79;86.83
74960;BME280;63518;49.572;1.106;2023-04-24T00:11:27;98654.19;;;6.49;87.63
74960;BME280;63518;49.572;1.106;2023-04-24T00:13:55;98655.16;;;6.68;87.51
74960;BME280;63518;49.572;1.106;2023-04-24T00:16:23;98660.06;;;6.71;87.02
74960;BME280;63518;49.572;1.106;2023-04-24T00:18:49;98667.59;;;6.95;86.81
74960;BME280;63518;49.572;1.106;2023-04-24T00:21:19;98629.09;;;6.76;86.36
74960;BME280;63518;49.572;1.106;2023-04-24T00:23:47;98670.13;;;6.86;87.74
74960;BME280;63518;49.572;1.106;2023-04-24T00:26:14;98665.78;;;6.80;86.95
74960;BME280;63518;49.572;1.106;2023-04-24T00:28:41;98684.16;;;6.74;86.45
74960;BME280;63518;49.572;1.106;2023-04-24T00:31:08;98678.31;;;6.91;86.37
74960;BME280;63518;49.572;1.106;2023-04-24T00:33:35;98672.06;;;6.80;86.53
74960;BME280;63518;49.572;1.106;2023-04-24T00:36:02;98685.47;;;6.82;86.94
74960;BME280;63518;49.572;1.106;2023-04-24T00:38:29;98695.31;;;6.83;87.68
74960;BME280;63518;49.572;1.106;2023-04-24T00:40:56;98702.00;;;6.61;87.97
74960;BME280;63518;49.572;1.106;2023-04-24T00:43:22;98673.53;;;6.62;87.39
74960;BME280;63518;49.572;1.106;2023-04-24T00:45:49;98682.16;;;6.90;86.78
74960;BME280;63518;49.572;1.106;2023-04-24T00:48:16;98707.34;;;6.92;86.29
74960;BME280;63518;49.572;1.106;2023-04-24T00:50:43;98694.22;;;7.23;87.09
74960;BME280;63518;49.572;1.106;2023-04-24T00:53:10;98693.63;;;6.97;86.78
74960;BME280;63518;49.572;1.106;2023-04-24T00:55:37;98714.53;;;7.17;86.75
74960;BME280;63518;49.572;1.106;2023-04-24T00:58:04;98694.19;;;7.28;86.79
74960;BME280;63518;49.572;1.106;2023-04-24T01:00:31;98687.75;;;7.09;86.75
74960;BME280;63518;49.572;1.106;2023-04-24T01:02:59;98708.66;;;7.34;86.50
74960;BME280;63518;49.572;1.106;2023-04-24T01:05:28;98705.97;;;7.29;86.01
74960;BME280;63518;49.572;1.106;2023-04-24T01:07:55;98696.50;;;7.11;86.90
74960;BME280;63518;49.572;1.106;2023-04-24T01:10:23;98692.13;;;7.10;86.61
74960;BME280;63518;49.572;1.106;2023-04-24T01:12:51;98707.53;;;7.01;87.92
74960;BME280;63518;49.572;1.106;2023-04-24T01:15:18;98713.13;;;7.25;86.69
74960;BME280;63518;49.572;1.106;2023-04-24T01:17:45;98670.09;;;6.91;86.91
74960;BME280;63518;49.572;1.106;2023-04-24T01:20:12;98706.69;;;7.39;85.97
74960;BME280;63518;49.572;1.106;2023-04-24T01:22:39;98721.50;;;7.04;87.65
74960;BME280;63518;49.572;1.106;2023-04-24T01:25:07;98711.81;;;7.17;87.03
74960;BME280;63518;49.572;1.106;2023-04-24T01:27:34;98711.88;;;7.41;85.49
74960;BME280;63518;49.572;1.106;2023-04-24T01:30:01;98678.00;;;6.98;86.00
74960;BME280;63518;49.572;1.106;2023-04-24T01:32:28;98693.75;;;7.11;85.93
74960;BME280;63518;49.572;1.106;2023-04-24T01:34:55;98717.75;;;7.29;85.85
74960;BME280;63518;49.572;1.106;2023-04-24T01:37:22;98712.41;;;7.09;86.02
74960;BME280;63518;49.572;1.106;2023-04-24T01:39:49;98718.81;;;7.33;86.45
74960;BME280;63518;49.572;1.106;2023-04-24T01:42:16;98723.25;;;7.24;86.95
74960;BME280;63518;49.572;1.106;2023-04-24T01:44:43;98707.47;;;7.11;85.90
74960;BME280;63518;49.572;1.106;2023-04-24T01:47:10;98719.72;;;7.24;86.08
74960;BME280;63518;49.572;1.106;2023-04-24T01:49:40;98714.50;;;7.27;86.06
74960;BME280;63518;49.572;1.106;2023-04-24T01:52:07;98718.25;;;7.36;86.31
74960;BME280;63518;49.572;1.106;2023-04-24T01:54:34;98724.66;;;7.56;86.59
74960;BME280;63518;49.572;1.106;2023-04-24T01:57:01;98689.69;;;7.08;86.53
74960;BME280;63518;49.572;1.106;2023-04-24T01:59:29;98728.00;;;7.48;86.24
74960;BME280;63518;49.572;1.106;2023-04-24T02:01:56;98737.75;;;7.64;85.95
74960;BME280;63518;49.572;1.106;2023-04-24T02:04:23;98733.13;;;7.25;86.45
74960;BME280;63518;49.572;1.106;2023-04-24T02:06:50;98732.38;;;7.20;86.16
74960;BME280;63518;49.572;1.106;2023-04-24T02:09:17;98707.81;;;7.04;86.77
74960;BME280;63518;49.572;1.106;2023-04-24T02:11:43;98725.81;;;7.15;87.16
74960;BME280;63518;49.572;1.106;2023-04-24T02:14:10;98730.34;;;7.30;86.11
74960;BME280;63518;49.572;1.106;2023-04-24T02:16:37;98755.06;;;7.59;84.57
74960;BME280;63518;49.572;1.106;2023-04-24T02:19:04;98706.59;;;7.21;84.99
74960;BME280;63518;49.572;1.106;2023-04-24T02:21:31;98736.25;;;7.42;85.27
74960;BME280;63518;49.572;1.106;2023-04-24T02:23:59;98745.00;;;7.50;85.52
74960;BME280;63518;49.572;1.106;2023-04-24T02:26:26;98750.81;;;7.43;85.73
74960;BME280;63518;49.572;1.106;2023-04-24T02:28:53;98735.94;;;7.15;85.54
74960;BME280;63518;49.572;1.106;2023-04-24T02:31:20;98747.00;;;7.39;86.70
74960;BME280;63518;49.572;1.106;2023-04-24T02:33:47;98773.56;;;7.43;86.81
74960;BME280;63518;49.572;1.106;2023-04-24T02:36:13;98757.34;;;7.13;87.44
74960;BME280;63518;49.572;1.106;2023-04-24T02:38:40;98769.50;;;7.36;86.46
74960;BME280;63518;49.572;1.106;2023-04-24T02:41:07;98775.59;;;7.62;86.49
74960;BME280;63518;49.572;1.106;2023-04-24T02:43:34;98776.69;;;7.27;86.54
74960;BME280;63518;49.572;1.106;2023-04-24T02:46:01;98771.00;;;7.18;87.40
74960;BME280;63518;49.572;1.106;2023-04-24T02:48:27;98779.19;;;7.57;87.15
74960;BME280;63518;49.572;1.106;2023-04-24T02:50:54;98770.50;;;7.79;86.40
74960;BME280;63518;49.572;1.106;2023-04-24T02:53:21;98781.50;;;7.45;85.64
74960;BME280;63518;49.572;1.106;2023-04-24T02:55:49;98789.63;;;7.21;86.98
74960;BME280;63518;49.572;1.106;2023-04-24T02:58:15;98775.53;;;7.33;87.07
74960;BME280;63518;49.572;1.106;2023-04-24T03:00:43;98791.25;;;7.22;87.59
74960;BME280;63518;49.572;1.106;2023-04-24T03:03:10;98786.38;;;7.14;87.58
74960;BME280;63518;49.572;1.106;2023-04-24T03:05:37;98793.47;;;7.20;88.34
74960;BME280;63518;49.572;1.106;2023-04-24T03:08:04;98795.31;;;7.30;88.80
74960;BME280;63518;49.572;1.106;2023-04-24T03:10:31;98799.22;;;7.58;87.10
74960;BME280;63518;49.572;1.106;2023-04-24T03:12:58;98809.53;;;7.32;87.87
74960;BME280;63518;49.572;1.106;2023-04-24T03:15:26;98793.41;;;7.25;87.90
74960;BME280;63518;49.572;1.106;2023-04-24T03:17:53;98795.25;;;7.40;87.74
74960;BME280;63518;49.572;1.106;2023-04-24T03:20:22;98812.19;;;7.47;86.90
74960;BME280;63518;49.572;1.106;2023-04-24T03:22:49;98812.00;;;7.33;86.81
74960;BME280;63518;49.572;1.106;2023-04-24T03:25:16;98805.75;;;7.28;87.91
74960;BME280;63518;49.572;1.106;2023-04-24T03:27:42;98799.44;;;7.27;87.73
74960;BME280;63518;49.572;1.106;2023-04-24T03:30:09;98794.84;;;7.17;87.92
74960;BME280;63518;49.572;1.106;2023-04-24T03:32:36;98824.88;;;7.38;87.07
74960;BME280;63518;49.572;1.106;2023-04-24T03:35:06;98823.16;;;7.47;87.66
74960;BME280;63518;49.572;1.106;2023-04-24T03:37:34;98809.25;;;7.33;86.56
74960;BME280;63518;49.572;1.106;2023-04-24T03:40:02;98819.81;;;7.55;86.85
74960;BME280;63518;49.572;1.106;2023-04-24T03:42:29;98816.44;;;7.29;86.81
74960;BME280;63518;49.572;1.106;2023-04-24T03:44:55;98822.47;;;7.26;87.93
74960;BME280;63518;49.572;1.106;2023-04-24T03:47:22;98814.53;;;7.25;87.37
74960;BME280;63518;49.572;1.106;2023-04-24T03:49:49;98835.31;;;7.36;87.27
74960;BME280;63518;49.572;1.106;2023-04-24T03:52:16;98820.81;;;7.30;86.82
74960;BME280;63518;49.572;1.106;2023-04-24T03:54:43;98816.81;;;7.07;88.69
74960;BME280;63518;49.572;1.106;2023-04-24T03:57:10;98832.13;;;7.58;86.77
74960;BME280;63518;49.572;1.106;2023-04-24T03:59:36;98829.84;;;7.26;86.88
74960;BME280;63518;49.572;1.106;2023-04-24T04:02:03;98830.16;;;7.63;87.50
74960;BME280;63518;49.572;1.106;2023-04-24T04:04:30;98827.38;;;7.29;87.22
74960;BME280;63518;49.572;1.106;2023-04-24T04:07:10;98842.72;;;7.35;87.52
74960;BME280;63518;49.572;1.106;2023-04-24T04:09:37;98838.44;;;7.14;88.42
74960;BME280;63518;49.572;1.106;2023-04-24T04:12:04;98835.63;;;7.29;87.06
74960;BME280;63518;49.572;1.106;2023-04-24T04:14:31;98851.25;;;7.29;88.49
74960;BME280;63518;49.572;1.106;2023-04-24T04:16:58;98855.84;;;7.33;88.05
74960;BME280;63518;49.572;1.106;2023-04-24T04:19:24;98855.63;;;7.30;87.73
74960;BME280;63518;49.572;1.106;2023-04-24T04:21:51;98862.06;;;7.49;87.44
74960;BME280;63518;49.572;1.106;2023-04-24T04:24:20;98859.91;;;7.41;86.88
74960;BME280;63518;49.572;1.106;2023-04-24T04:26:50;98843.63;;;7.21;87.27
74960;BME280;63518;49.572;1.106;2023-04-24T04:29:18;98861.22;;;7.54;87.59
74960;BME280;63518;49.572;1.106;2023-04-24T04:31:45;98862.34;;;7.53;87.96
74960;BME280;63518;49.572;1.106;2023-04-24T04:34:12;98866.56;;;7.30;87.26
74960;BME280;63518;49.572;1.106;2023-04-24T04:36:41;98875.53;;;7.45;87.41
74960;BME280;63518;49.572;1.106;2023-04-24T04:39:08;98853.41;;;7.27;87.76
74960;BME280;63518;49.572;1.106;2023-04-24T04:41:35;98858.56;;;7.38;88.01
74960;BME280;63518;49.572;1.106;2023-04-24T04:44:01;98889.56;;;7.34;88.07
74960;BME280;63518;49.572;1.106;2023-04-24T04:46:31;98877.00;;;7.28;87.48
74960;BME280;63518;49.572;1.106;2023-04-24T04:49:02;98895.69;;;7.21;88.03
74960;BME280;63518;49.572;1.106;2023-04-24T04:51:29;98899.47;;;7.25;87.67
74960;BME280;63518;49.572;1.106;2023-04-24T04:53:57;98879.75;;;7.28;87.08
74960;BME280;63518;49.572;1.106;2023-04-24T04:56:24;98897.47;;;7.40;86.57
74960;BME280;63518;49.572;1.106;2023-04-24T04:58:51;98912.19;;;7.60;87.10
74960;BME280;63518;49.572;1.106;2023-04-24T05:01:18;98896.72;;;7.35;86.86
74960;BME280;63518;49.572;1.106;2023-04-24T05:03:44;98904.38;;;7.33;86.80
74960;BME280;63518;49.572;1.106;2023-04-24T05:06:12;98916.72;;;7.30;88.25
74960;BME280;63518;49.572;1.106;2023-04-24T05:08:38;98922.22;;;7.25;88.30
74960;BME280;63518;49.572;1.106;2023-04-24T05:11:05;98926.88;;;7.25;87.54
74960;BME280;63518;49.572;1.106;2023-04-24T05:13:32;98920.00;;;7.37;87.01
74960;BME280;63518;49.572;1.106;2023-04-24T05:16:06;98930.78;;;7.68;86.42
74960;BME280;63518;49.572;1.106;2023-04-24T05:18:33;98918.06;;;7.38;87.67
74960;BME280;63518;49.572;1.106;2023-04-24T05:21:00;98937.69;;;7.60;86.58
74960;BME280;63518;49.572;1.106;2023-04-24T05:23:27;98924.88;;;7.45;86.96
74960;BME280;63518;49.572;1.106;2023-04-24T05:25:54;98937.50;;;7.47;85.86
74960;BME280;63518;49.572;1.106;2023-04-24T05:28:21;98946.22;;;7.59;86.16
74960;BME280;63518;49.572;1.106;2023-04-24T05:30:48;98947.72;;;7.80;86.91
74960;BME280;63518;49.572;1.106;2023-04-24T05:33:14;98956.28;;;7.68;87.10
74960;BME280;63518;49.572;1.106;2023-04-24T05:35:41;98960.91;;;7.73;85.06
74960;BME280;63518;49.572;1.106;2023-04-24T05:38:13;98966.38;;;7.78;85.54
74960;BME280;63518;49.572;1.106;2023-04-24T05:40:40;98964.69;;;7.87;86.28
74960;BME280;63518;49.572;1.106;2023-04-24T05:43:07;98929.19;;;7.62;85.84
74960;BME280;63518;49.572;1.106;2023-04-24T05:45:34;98972.72;;;7.73;87.29
74960;BME280;63518;49.572;1.106;2023-04-24T05:48:03;98993.00;;;7.72;87.00
74960;BME280;63518;49.572;1.106;2023-04-24T05:50:30;98996.31;;;7.75;86.72
74960;BME280;63518;49.572;1.106;2023-04-24T05:52:57;99000.34;;;7.87;86.72
74960;BME280;63518;49.572;1.106;2023-04-24T05:55:30;98983.00;;;7.97;85.32
74960;BME280;63518;49.572;1.106;2023-04-24T05:57:57;98998.09;;;7.94;85.88
74960;BME280;63518;49.572;1.106;2023-04-24T06:00:25;99000.19;;;7.63;87.40
74960;BME280;63518;49.572;1.106;2023-04-24T06:02:52;99008.13;;;7.70;86.52
74960;BME280;63518;49.572;1.106;2023-04-24T06:05:20;99000.19;;;7.68;85.90
74960;BME280;63518;49.572;1.106;2023-04-24T06:07:47;99022.50;;;7.96;85.55
74960;BME280;63518;49.572;1.106;2023-04-24T06:10:14;99024.00;;;7.73;86.45
74960;BME280;63518;49.572;1.106;2023-04-24T06:12:42;99026.59;;;8.04;86.15
74960;BME280;63518;49.572;1.106;2023-04-24T06:15:10;99031.88;;;8.34;83.12
74960;BME280;63518;49.572;1.106;2023-04-24T06:17:37;99024.97;;;7.97;84.65
74960;BME280;63518;49.572;1.106;2023-04-24T06:20:05;99024.97;;;8.42;83.62
74960;BME280;63518;49.572;1.106;2023-04-24T06:22:32;99001.44;;;8.31;84.75
74960;BME280;63518;49.572;1.106;2023-04-24T06:25:02;99029.22;;;8.58;84.92
74960;BME280;63518;49.572;1.106;2023-04-24T06:27:32;98966.28;;;7.98;84.16
74960;BME280;63518;49.572;1.106;2023-04-24T06:30:02;99043.19;;;8.27;83.84
74960;BME280;63518;49.572;1.106;2023-04-24T06:32:32;99009.91;;;7.95;85.62
74960;BME280;63518;49.572;1.106;2023-04-24T06:35:03;99040.13;;;8.34;85.27
74960;BME280;63518;49.572;1.106;2023-04-24T06:37:36;98983.50;;;7.60;85.88
74960;BME280;63518;49.572;1.106;2023-04-24T06:40:11;99043.56;;;8.11;86.23
74960;BME280;63518;49.572;1.106;2023-04-24T06:42:41;98980.00;;;7.93;86.96
74960;BME280;63518;49.572;1.106;2023-04-24T06:45:09;98994.84;;;7.92;84.98
74960;BME280;63518;49.572;1.106;2023-04-24T06:47:39;98988.75;;;8.00;84.46
74960;BME280;63518;49.572;1.106;2023-04-24T06:50:10;99047.41;;;8.15;85.97
74960;BME280;63518;49.572;1.106;2023-04-24T06:52:40;98972.22;;;8.06;83.50
74960;BME280;63518;49.572;1.106;2023-04-24T06:55:16;98957.84;;;7.85;85.36
74960;BME280;63518;49.572;1.106;2023-04-24T06:57:44;99041.31;;;8.18;86.23
74960;BME280;63518;49.572;1.106;2023-04-24T07:00:17;98976.75;;;7.91;85.27
74960;BME280;63518;49.572;1.106;2023-04-24T07:02:47;98953.06;;;8.00;83.23
74960;BME280;63518;49.572;1.106;2023-04-24T07:05:16;98978.78;;;8.49;82.81
74960;BME280;63518;49.572;1.106;2023-04-24T07:07:49;98979.97;;;8.38;83.25
74960;BME280;63518;49.572;1.106;2023-04-24T07:10:18;98974.34;;;8.53;83.49
74960;BME280;63518;49.572;1.106;2023-04-24T07:12:47;98963.63;;;8.51;82.40
74960;BME280;63518;49.572;1.106;2023-04-24T07:15:14;99031.75;;;9.18;81.83
74960;BME280;63518;49.572;1.106;2023-04-24T07:17:42;99037.91;;;9.04;82.29
74960;BME280;63518;49.572;1.106;2023-04-24T07:20:11;98949.22;;;8.70;81.31
74960;BME280;63518;49.572;1.106;2023-04-24T07:22:38;99029.88;;;9.61;81.45
74960;BME280;63518;49.572;1.106;2023-04-24T07:25:05;99039.84;;;9.57;81.27
74960;BME280;63518;49.572;1.106;2023-04-24T07:27:33;99040.66;;;9.33;81.27
74960;BME280;63518;49.572;1.106;2023-04-24T07:30:00;99030.13;;;9.64;80.75
74960;BME280;63518;49.572;1.106;2023-04-24T07:32:27;99051.00;;;9.89;79.99
74960;BME280;63518;49.572;1.106;2023-04-24T07:34:54;98965.16;;;9.21;79.93
74960;BME280;63518;49.572;1.106;2023-04-24T07:37:25;98942.84;;;8.45;80.54
74960;BME280;63518;49.572;1.106;2023-04-24T07:39:54;98959.72;;;9.16;80.67
74960;BME280;63518;49.572;1.106;2023-04-24T07:42:25;99041.06;;;9.46;80.50
74960;BME280;63518;49.572;1.106;2023-04-24T07:44:52;99023.91;;;9.54;80.09
74960;BME280;63518;49.572;1.106;2023-04-24T07:47:19;99046.31;;;10.09;79.67
74960;BME280;63518;49.572;1.106;2023-04-24T07:49:47;99020.59;;;9.33;78.67
74960;BME280;63518;49.572;1.106;2023-04-24T07:52:16;99012.97;;;9.91;78.19
74960;BME280;63518;49.572;1.106;2023-04-24T07:54:43;98994.78;;;9.29;79.19
74960;BME280;63518;49.572;1.106;2023-04-24T07:57:11;99075.44;;;9.48;81.63
74960;BME280;63518;49.572;1.106;2023-04-24T07:59:37;99059.91;;;9.81;80.10
74960;BME280;63518;49.572;1.106;2023-04-24T08:02:04;99063.34;;;9.92;78.85
74960;BME280;63518;49.572;1.106;2023-04-24T08:04:33;99063.84;;;10.37;76.93
74960;BME280;63518;49.572;1.106;2023-04-24T08:07:00;99062.94;;;10.41;76.86
74960;BME280;63518;49.572;1.106;2023-04-24T08:09:27;99068.69;;;10.02;78.63
74960;BME280;63518;49.572;1.106;2023-04-24T08:11:53;99065.19;;;10.39;77.39
74960;BME280;63518;49.572;1.106;2023-04-24T08:14:20;99072.25;;;10.97;76.02
74960;BME280;63518;49.572;1.106;2023-04-24T08:16:47;99062.47;;;10.72;77.45
74960;BME280;63518;49.572;1.106;2023-04-24T08:19:14;99067.91;;;10.77;75.42
74960;BME280;63518;49.572;1.106;2023-04-24T08:21:40;99056.22;;;10.66;76.11
74960;BME280;63518;49.572;1.106;2023-04-24T08:24:07;99063.06;;;10.12;77.23
74960;BME280;63518;49.572;1.106;2023-04-24T08:26:34;99061.03;;;9.80;79.36
74960;BME280;63518;49.572;1.106;2023-04-24T08:29:01;99072.31;;;9.02;81.29
74960;BME280;63518;49.572;1.106;2023-04-24T08:31:28;99062.00;;;9.18;82.11
74960;BME280;63518;49.572;1.106;2023-04-24T08:33:55;99069.03;;;9.77;79.87
74960;BME280;63518;49.572;1.106;2023-04-24T08:36:22;99081.28;;;10.08;79.64
74960;BME280;63518;49.572;1.106;2023-04-24T08:38:58;99083.47;;;10.11;79.36
74960;BME280;63518;49.572;1.106;2023-04-24T08:41:26;99083.91;;;10.18;78.15
74960;BME280;63518;49.572;1.106;2023-04-24T08:43:54;99072.81;;;10.05;78.75
74960;BME280;63518;49.572;1.106;2023-04-24T08:46:22;99088.72;;;10.08;76.62
74960;BME280;63518;49.572;1.106;2023-04-24T08:48:50;99095.06;;;9.36;80.27
74960;BME280;63518;49.572;1.106;2023-04-24T08:51:17;99081.78;;;9.44;81.52
74960;BME280;63518;49.572;1.106;2023-04-24T08:53:45;99093.22;;;9.80;80.91
74960;BME280;63518;49.572;1.106;2023-04-24T08:56:13;99093.03;;;9.71;81.27
74960;BME280;63518;49.572;1.106;2023-04-24T08:58:40;99093.66;;;9.63;81.16
74960;BME280;63518;49.572;1.106;2023-04-24T09:01:08;99093.06;;;9.18;81.05
74960;BME280;63518;49.572;1.106;2023-04-24T09:03:36;99103.84;;;10.10;80.64
74960;BME280;63518;49.572;1.106;2023-04-24T09:06:06;99103.22;;;8.83;80.49
74960;BME280;63518;49.572;1.106;2023-04-24T09:08:34;99096.59;;;9.72;80.23
74960;BME280;63518;49.572;1.106;2023-04-24T09:11:01;99092.84;;;9.86;79.65
74960;BME280;63518;49.572;1.106;2023-04-24T09:13:30;99106.44;;;9.54;80.08
74960;BME280;63518;49.572;1.106;2023-04-24T09:15:57;99109.28;;;9.73;79.73
74960;BME280;63518;49.572;1.106;2023-04-24T09:18:24;99111.75;;;9.93;79.03
74960;BME280;63518;49.572;1.106;2023-04-24T09:21:06;99099.97;;;9.87;78.68
74960;BME280;63518;49.572;1.106;2023-04-24T09:23:33;99104.16;;;9.85;78.85
74960;BME280;63518;49.572;1.106;2023-04-24T09:26:01;99117.34;;;9.88;78.82
74960;BME280;63518;49.572;1.106;2023-04-24T09:28:32;99123.94;;;10.11;78.25
74960;BME280;63518;49.572;1.106;2023-04-24T09:31:15;99127.41;;;9.74;78.67
74960;BME280;63518;49.572;1.106;2023-04-24T09:33:55;99131.97;;;10.07;79.19
74960;BME280;63518;49.572;1.106;2023-04-24T09:39:00;99113.47;;;9.65;79.59
74960;BME280;63518;49.572;1.106;2023-04-24T09:41:27;99137.81;;;10.24;78.03
74960;BME280;63518;49.572;1.106;2023-04-24T09:43:56;99113.72;;;10.73;76.60
74960;BME280;63518;49.572;1.106;2023-04-24T09:46:30;99135.34;;;10.47;77.43
74960;BME280;63518;49.572;1.106;2023-04-24T09:49:07;99107.72;;;10.52;76.65
74960;BME280;63518;49.572;1.106;2023-04-24T09:51:36;99136.06;;;10.71;77.13
74960;BME280;63518;49.572;1.106;2023-04-24T09:54:04;99118.34;;;10.40;76.65
74960;BME280;63518;49.572;1.106;2023-04-24T09:56:42;99133.09;;;10.49;77.04
74960;BME280;63518;49.572;1.106;2023-04-24T09:59:11;99147.06;;;10.34;77.14
74960;BME280;63518;49.572;1.106;2023-04-24T10:01:38;99140.38;;;10.96;76.31
74960;BME280;63518;49.572;1.106;2023-04-24T10:04:18;99153.00;;;10.22;77.35
74960;BME280;63518;49.572;1.106;2023-04-24T10:06:48;99150.84;;;10.43;78.00
74960;BME280;63518;49.572;1.106;2023-04-24T10:09:19;99132.94;;;10.78;76.35
74960;BME280;63518;49.572;1.106;2023-04-24T10:11:48;99152.69;;;10.47;76.03
74960;BME280;63518;49.572;1.106;2023-04-24T10:14:18;99151.19;;;10.55;78.10
74960;BME280;63518;49.572;1.106;2023-04-24T10:16:45;99150.44;;;10.49;76.59
74960;BME280;63518;49.572;1.106;2023-04-24T10:19:16;99134.88;;;10.40;76.63
74960;BME280;63518;49.572;1.106;2023-04-24T10:21:45;99165.22;;;10.35;76.41
74960;BME280;63518;49.572;1.106;2023-04-24T10:24:18;99160.28;;;10.37;76.25
74960;BME280;63518;49.572;1.106;2023-04-24T10:26:48;99167.47;;;10.75;75.77
74960;BME280;63518;49.572;1.106;2023-04-24T10:29:17;99154.31;;;10.86;75.64
74960;BME280;63518;49.572;1.106;2023-04-24T10:31:44;99152.47;;;10.44;76.23
74960;BME280;63518;49.572;1.106;2023-04-24T10:34:15;99142.19;;;10.68;72.78
74960;BME280;63518;49.572;1.106;2023-04-24T10:36:48;99174.72;;;11.04;73.86
74960;BME280;63518;49.572;1.106;2023-04-24T10:39:18;99161.78;;;10.86;73.85
74960;BME280;63518;49.572;1.106;2023-04-24T10:41:53;99165.31;;;11.56;73.54
74960;BME280;63518;49.572;1.106;2023-04-24T10:44:24;99147.56;;;11.30;70.49
74960;BME280;63518;49.572;1.106;2023-04-24T10:46:55;99159.38;;;11.49;70.95
74960;BME280;63518;49.572;1.106;2023-04-24T10:49:30;99152.59;;;12.29;68.92
74960;BME280;63518;49.572;1.106;2023-04-24T10:52:05;99158.94;;;12.43;68.51
74960;BME280;63518;49.572;1.106;2023-04-24T10:54:41;99158.94;;;12.30;67.86
74960;BME280;63518;49.572;1.106;2023-04-24T10:59:47;99155.72;;;11.68;68.92
74960;BME280;63518;49.572;1.106;2023-04-24T11:02:15;99143.97;;;12.44;67.98
74960;BME280;63518;49.572;1.106;2023-04-24T11:04:53;99160.13;;;11.36;68.12
74960;BME280;63518;49.572;1.106;2023-04-24T11:07:29;99158.34;;;10.94;70.23
74960;BME280;63518;49.572;1.106;2023-04-24T11:10:00;99180.31;;;11.50;69.25
74960;BME280;63518;49.572;1.106;2023-04-24T11:12:37;99167.78;;;10.50;70.43
74960;BME280;63518;49.572;1.106;2023-04-24T11:15:10;99183.81;;;10.48;73.18
74960;BME280;63518;49.572;1.106;2023-04-24T11:17:38;99193.00;;;9.90;74.81
74960;BME280;63518;49.572;1.106;2023-04-24T11:20:09;99185.38;;;10.54;72.87
74960;BME280;63518;49.572;1.106;2023-04-24T11:22:53;99168.13;;;10.67;72.43
74960;BME280;63518;49.572;1.106;2023-04-24T11:25:24;99171.16;;;10.66;73.12
74960;BME280;63518;49.572;1.106;2023-04-24T11:28:03;99189.97;;;10.83;72.88
74960;BME280;63518;49.572;1.106;2023-04-24T11:30:41;99187.25;;;11.48;70.51
74960;BME280;63518;49.572;1.106;2023-04-24T11:33:08;99183.91;;;10.99;70.06
74960;BME280;63518;49.572;1.106;2023-04-24T11:35:39;99180.38;;;11.31;68.86
74960;BME280;63518;49.572;1.106;2023-04-24T11:38:07;99185.19;;;11.40;67.19
74960;BME280;63518;49.572;1.106;2023-04-24T11:40:51;99178.34;;;11.70;67.28
74960;BME280;63518;49.572;1.106;2023-04-24T11:43:19;99172.53;;;11.52;65.17
74960;BME280;63518;49.572;1.106;2023-04-24T11:45:50;99177.50;;;11.36;65.42
74960;BME280;63518;49.572;1.106;2023-04-24T11:48:25;99176.78;;;11.31;68.03
74960;BME280;63518;49.572;1.106;2023-04-24T11:50:52;99175.91;;;11.82;66.73
74960;BME280;63518;49.572;1.106;2023-04-24T11:53:20;99177.25;;;11.52;64.97
74960;BME280;63518;49.572;1.106;2023-04-24T11:55:48;99171.16;;;11.22;68.59
74960;BME280;63518;49.572;1.106;2023-04-24T11:58:20;99180.72;;;10.31;70.53
74960;BME280;63518;49.572;1.106;2023-04-24T12:00:59;99176.66;;;9.99;67.32
74960;BME280;63518;49.572;1.106;2023-04-24T12:03:27;99177.72;;;10.51;67.68
74960;BME280;63518;49.572;1.106;2023-04-24T12:06:08;99160.06;;;11.08;66.35
74960;BME280;63518;49.572;1.106;2023-04-24T12:08:36;99175.53;;;10.48;68.33
74960;BME280;63518;49.572;1.106;2023-04-24T12:11:05;99180.94;;;9.86;68.66
74960;BME280;63518;49.572;1.106;2023-04-24T12:13:35;99182.63;;;10.35;69.64
74960;BME280;63518;49.572;1.106;2023-04-24T12:16:03;99172.41;;;10.73;68.69
74960;BME280;63518;49.572;1.106;2023-04-24T12:18:31;99176.59;;;10.90;66.70
74960;BME280;63518;49.572;1.106;2023-04-24T12:21:20;99170.88;;;11.38;66.03
74960;BME280;63518;49.572;1.106;2023-04-24T12:23:49;99180.13;;;11.28;66.04
74960;BME280;63518;49.572;1.106;2023-04-24T12:26:18;99193.03;;;12.25;63.64
74960;BME280;63518;49.572;1.106;2023-04-24T12:28:47;99190.88;;;12.36;64.24
74960;BME280;63518;49.572;1.106;2023-04-24T12:31:16;99155.56;;;11.91;63.82
74960;BME280;63518;49.572;1.106;2023-04-24T12:33:43;99175.72;;;12.19;63.15
74960;BME280;63518;49.572;1.106;2023-04-24T12:36:10;99162.41;;;12.22;63.80
74960;BME280;63518;49.572;1.106;2023-04-24T12:38:39;99172.75;;;12.30;60.06
74960;BME280;63518;49.572;1.106;2023-04-24T12:41:12;99178.25;;;12.57;61.49
74960;BME280;63518;49.572;1.106;2023-04-24T12:43:51;99176.47;;;12.89;57.95
74960;BME280;63518;49.572;1.106;2023-04-24T12:46:18;99169.09;;;12.70;56.45
74960;BME280;63518;49.572;1.106;2023-04-24T12:48:48;99167.44;;;12.83;57.94
74960;BME280;63518;49.572;1.106;2023-04-24T12:51:14;99176.41;;;13.02;58.46
74960;BME280;63518;49.572;1.106;2023-04-24T12:53:41;99153.84;;;11.17;57.01
74960;BME280;63518;49.572;1.106;2023-04-24T12:56:08;99177.44;;;11.74;59.35
74960;BME280;63518;49.572;1.106;2023-04-24T12:58:37;99167.44;;;12.06;56.95
74960;BME280;63518;49.572;1.106;2023-04-24T13:01:04;99165.25;;;13.08;55.42
74960;BME280;63518;49.572;1.106;2023-04-24T13:03:31;99170.09;;;12.11;57.65
74960;BME280;63518;49.572;1.106;2023-04-24T13:05:58;99163.88;;;12.83;56.53
74960;BME280;63518;49.572;1.106;2023-04-24T13:08:26;99162.03;;;13.14;54.33
74960;BME280;63518;49.572;1.106;2023-04-24T13:10:53;99159.41;;;13.32;56.96
74960;BME280;63518;49.572;1.106;2023-04-24T13:17:06;99168.34;;;14.22;52.60
74960;BME280;63518;49.572;1.106;2023-04-24T13:19:55;99164.34;;;14.05;56.68
74960;BME280;63518;49.572;1.106;2023-04-24T13:22:42;99155.56;;;12.96;53.84
74960;BME280;63518;49.572;1.106;2023-04-24T13:25:50;99167.75;;;13.18;54.73